createdAt,value
2022-12-26T00:10:18.074Z,13.12
2022-12-26T00:15:20.851Z,13.16
2022-12-26T00:20:22.351Z,13.22
2022-12-26T00:25:24.118Z,13.23
2022-12-26T00:30:28.014Z,13.13
2022-12-26T00:35:29.435Z,13.16
2022-12-26T00:40:30.944Z,13.14
2022-12-26T00:45:33.439Z,13.07
2022-12-26T00:50:35.209Z,13.00
2022-12-26T00:55:36.766Z,12.90
2022-12-26T01:00:43.551Z,12.87
2022-12-26T01:05:51.314Z,12.91
2022-12-26T01:10:53.280Z,12.94
2022-12-26T01:15:54.820Z,12.97
2022-12-26T01:21:06.174Z,12.86
2022-12-26T01:26:17.049Z,12.89
2022-12-26T01:31:30.561Z,12.93
2022-12-26T01:36:34.642Z,13.03
2022-12-26T01:41:40.165Z,13.08
2022-12-26T01:46:47.470Z,13.09
2022-12-26T01:51:55.290Z,13.13
2022-12-26T01:56:58.061Z,13.15
2022-12-26T02:02:00.530Z,13.15
2022-12-26T02:07:04.228Z,13.19
2022-12-26T02:12:35.985Z,13.29
2022-12-26T02:17:42.246Z,13.33
2022-12-26T02:23:27.371Z,13.38
2022-12-26T02:29:07.198Z,13.46
2022-12-26T02:34:26.846Z,13.52
2022-12-26T02:39:46.655Z,13.52
2022-12-26T02:45:17.142Z,13.62
2022-12-26T02:50:50.608Z,13.63
2022-12-26T02:56:15.760Z,13.68
2022-12-26T03:01:51.618Z,13.67
2022-12-26T03:07:16.839Z,13.71
2022-12-26T03:12:36.894Z,13.71
2022-12-26T03:17:44.735Z,13.72
2022-12-26T03:22:54.870Z,13.65
2022-12-26T03:27:56.723Z,13.58
2022-12-26T03:32:58.895Z,13.50
2022-12-26T03:38:09.966Z,13.42
2022-12-26T03:44:08.405Z,13.47
2022-12-26T03:49:42.999Z,13.36
2022-12-26T03:55:20.808Z,13.22
2022-12-26T04:00:41.111Z,13.06
2022-12-26T04:06:04.467Z,13.11
2022-12-26T04:11:29.982Z,13.04
2022-12-26T04:16:56.107Z,12.97
2022-12-26T04:22:41.914Z,12.94
2022-12-26T04:28:02.786Z,12.93
2022-12-26T04:33:32.984Z,12.80
2022-12-26T04:39:06.796Z,12.69
2022-12-26T04:44:10.065Z,12.65
2022-12-26T04:49:32.071Z,12.65
2022-12-26T04:54:33.973Z,12.62
2022-12-26T04:59:35.517Z,12.61
2022-12-26T05:04:55.497Z,12.65
2022-12-26T05:09:57.187Z,12.70
2022-12-26T05:14:58.693Z,12.79
2022-12-26T05:20:18.816Z,12.87
2022-12-26T05:25:43.823Z,12.86
2022-12-26T05:30:45.479Z,12.83
2022-12-26T05:35:47.003Z,12.89
2022-12-26T05:40:48.502Z,13.00
2022-12-26T05:45:49.975Z,13.10
2022-12-26T05:50:51.600Z,13.21
2022-12-26T05:55:53.094Z,13.33
2022-12-26T06:01:04.617Z,13.44
2022-12-26T06:06:09.554Z,13.56
2022-12-26T06:11:12.950Z,13.64
2022-12-26T06:16:17.020Z,13.68
2022-12-26T06:21:20.009Z,13.72
2022-12-26T06:26:21.483Z,13.74
2022-12-26T06:31:24.541Z,13.76
2022-12-26T06:36:27.709Z,13.75
2022-12-26T06:41:29.385Z,13.73
2022-12-26T06:46:31.478Z,13.75
2022-12-26T06:51:33.299Z,13.71
2022-12-26T06:56:35.443Z,13.75
2022-12-26T07:01:37.295Z,13.71
2022-12-26T07:06:39.376Z,13.72
2022-12-26T07:11:44.061Z,13.75
2022-12-26T07:16:46.169Z,13.79
2022-12-26T07:21:47.774Z,13.80
2022-12-26T07:26:50.070Z,13.86
2022-12-26T07:31:51.896Z,13.77
2022-12-26T07:36:53.541Z,13.46
2022-12-26T07:41:57.699Z,12.87
2022-12-26T07:47:00.131Z,12.67
2022-12-26T07:52:02.280Z,12.46
2022-12-26T07:57:37.945Z,12.17
2022-12-26T08:02:25.586Z,11.96
2022-12-26T08:07:27.269Z,11.84
2022-12-26T08:12:28.777Z,11.63
2022-12-26T08:17:32.754Z,11.79
2022-12-26T08:22:34.372Z,11.83
2022-12-26T08:27:35.861Z,12.08
2022-12-26T08:32:39.492Z,12.20
2022-12-26T08:37:44.027Z,12.07
2022-12-26T08:43:11.836Z,12.17
2022-12-26T08:48:07.002Z,12.26
2022-12-26T08:53:08.435Z,12.15
2022-12-26T08:58:10.060Z,12.00
2022-12-26T09:03:11.711Z,11.93
2022-12-26T09:08:13.609Z,11.98
2022-12-26T09:13:15.070Z,12.06
2022-12-26T09:18:18.343Z,12.05
2022-12-26T09:23:19.792Z,11.98
2022-12-26T09:28:21.474Z,11.91
2022-12-26T09:33:22.939Z,11.86
2022-12-26T09:38:32.878Z,11.94
2022-12-26T09:44:03.364Z,11.96
2022-12-26T09:49:12.082Z,12.05
2022-12-26T09:54:24.777Z,12.06
2022-12-26T09:59:27.234Z,12.17
2022-12-26T10:04:32.630Z,12.17
2022-12-26T10:09:58.477Z,12.23
2022-12-26T10:15:29.469Z,12.27
2022-12-26T10:20:36.145Z,12.26
2022-12-26T10:25:50.486Z,12.38
2022-12-26T10:30:56.058Z,12.40
2022-12-26T10:35:59.740Z,12.46
2022-12-26T10:41:09.571Z,12.49
2022-12-26T10:46:23.227Z,12.53
2022-12-26T10:51:25.266Z,12.57
2022-12-26T10:56:29.840Z,12.62
2022-12-26T11:01:37.833Z,12.70
2022-12-26T11:06:43.991Z,12.74
2022-12-26T11:11:51.546Z,12.77
2022-12-26T11:16:53.547Z,12.86
2022-12-26T11:21:55.126Z,12.94
2022-12-26T11:27:17.887Z,12.99
2022-12-26T11:32:20.735Z,13.01
2022-12-26T11:37:30.510Z,13.02
2022-12-26T11:42:32.390Z,13.13
2022-12-26T11:47:36.219Z,13.20
2022-12-26T11:52:37.815Z,13.23
2022-12-26T11:57:40.630Z,13.26
2022-12-26T12:08:44.477Z,13.26
2022-12-26T12:14:06.840Z,13.27
2022-12-26T12:19:20.710Z,13.37
2022-12-26T12:29:47.442Z,13.43
2022-12-26T12:35:26.607Z,13.45
2022-12-26T12:40:51.064Z,13.51
2022-12-26T12:46:10.562Z,13.59
2022-12-26T12:51:18.036Z,13.67
2022-12-26T12:56:26.713Z,13.57
2022-12-26T13:01:34.982Z,13.49
2022-12-26T13:06:45.712Z,13.42
2022-12-26T13:12:08.243Z,13.21
2022-12-26T13:17:27.992Z,12.71
2022-12-26T13:22:55.128Z,12.43
2022-12-26T13:28:09.748Z,11.90
2022-12-26T13:33:20.456Z,11.67
2022-12-26T13:38:23.534Z,11.35
2022-12-26T13:43:44.372Z,11.00
2022-12-26T13:48:53.949Z,10.62
2022-12-26T13:54:10.833Z,10.39
2022-12-26T13:59:24.891Z,10.51
2022-12-26T14:04:40.222Z,10.63
2022-12-26T14:10:07.121Z,10.79
2022-12-26T14:15:29.603Z,10.78
2022-12-26T14:20:54.167Z,10.83
2022-12-26T14:26:01.196Z,10.87
2022-12-26T14:31:53.733Z,10.81
2022-12-26T14:37:19.852Z,10.86
2022-12-26T14:42:42.939Z,10.70
2022-12-26T14:47:48.965Z,10.62
2022-12-26T14:52:50.453Z,10.60
2022-12-26T14:57:53.385Z,10.64
2022-12-26T15:03:01.575Z,10.70
2022-12-26T15:08:21.750Z,10.71
2022-12-26T15:13:59.796Z,10.68
2022-12-26T15:19:34.729Z,10.66
2022-12-26T15:30:42.231Z,10.71
2022-12-26T15:36:15.329Z,10.70
2022-12-26T15:41:56.864Z,10.64
2022-12-26T15:47:14.797Z,10.73
2022-12-26T15:52:54.922Z,10.75
2022-12-26T15:58:05.774Z,10.81
2022-12-26T16:03:29.785Z,10.85
2022-12-26T16:08:58.301Z,10.84
2022-12-26T16:14:03.484Z,10.91
2022-12-26T16:19:30.985Z,10.86
2022-12-26T16:24:35.562Z,10.89
2022-12-26T16:29:47.375Z,10.94
2022-12-26T16:34:52.515Z,10.97
2022-12-26T16:40:19.810Z,10.93
2022-12-26T16:45:27.566Z,10.83
2022-12-26T16:50:32.936Z,10.71
2022-12-26T16:55:42.526Z,10.51
2022-12-26T17:01:14.982Z,10.39
2022-12-26T17:06:39.149Z,10.34
2022-12-26T17:12:03.131Z,10.34
2022-12-26T17:18:09.981Z,10.31
2022-12-26T17:23:34.242Z,10.29
2022-12-26T17:28:37.306Z,10.16
2022-12-26T17:33:47.540Z,10.17
2022-12-26T17:38:49.614Z,10.14
2022-12-26T17:43:52.501Z,10.24
2022-12-26T17:48:53.995Z,10.35
2022-12-26T17:53:55.437Z,10.20
2022-12-26T17:58:57.022Z,10.17
2022-12-26T18:03:58.506Z,10.28
2022-12-26T18:09:02.387Z,10.36
2022-12-26T18:14:03.825Z,10.34
2022-12-26T18:19:05.418Z,10.29
2022-12-26T18:24:07.066Z,10.11
2022-12-26T18:29:10.327Z,10.12
2022-12-26T18:34:14.425Z,10.02
2022-12-26T18:39:16.658Z,9.82
2022-12-26T18:44:20.628Z,9.45
2022-12-26T18:49:32.187Z,9.25
2022-12-26T18:54:38.999Z,9.24
2022-12-26T18:59:40.629Z,9.19
2022-12-26T19:04:42.155Z,9.13
2022-12-26T19:09:45.763Z,9.02
2022-12-26T19:14:47.605Z,9.05
2022-12-26T19:19:49.354Z,9.04
2022-12-26T19:24:51.196Z,8.95
2022-12-26T19:29:52.742Z,8.91
2022-12-26T19:34:56.185Z,9.12
2022-12-26T19:40:03.343Z,8.98
2022-12-26T19:45:09.521Z,9.04
2022-12-26T19:50:12.252Z,9.07
2022-12-26T19:55:13.990Z,9.23
2022-12-26T20:00:15.654Z,9.26
2022-12-26T20:05:18.218Z,9.06
2022-12-26T20:10:19.878Z,8.92
2022-12-26T20:15:24.085Z,8.86
2022-12-26T20:20:25.745Z,8.85
2022-12-26T20:25:28.565Z,8.83
2022-12-26T20:30:30.295Z,8.73
2022-12-26T20:35:32.120Z,8.66
2022-12-26T20:40:33.759Z,8.70
2022-12-26T20:45:37.934Z,8.72
2022-12-26T20:50:39.689Z,8.76
2022-12-26T20:55:41.368Z,8.85
2022-12-26T21:00:44.966Z,8.87
2022-12-26T21:05:46.657Z,8.84
2022-12-26T21:10:48.307Z,8.87
2022-12-26T21:15:50.057Z,8.90
2022-12-26T21:20:51.676Z,8.98
2022-12-26T21:25:57.628Z,8.75
2022-12-26T21:30:59.268Z,8.63
2022-12-26T21:36:02.061Z,8.54
2022-12-26T21:41:07.731Z,8.36
2022-12-26T21:46:13.311Z,8.28
2022-12-26T21:51:15.652Z,8.26
2022-12-26T21:56:17.638Z,8.14
2022-12-26T22:01:24.137Z,7.97
2022-12-26T22:06:25.526Z,7.81
2022-12-26T22:11:45.356Z,7.74
2022-12-26T22:16:46.771Z,7.64
2022-12-26T22:21:48.115Z,7.56
2022-12-26T22:26:49.486Z,7.52
2022-12-26T22:31:50.837Z,7.47
2022-12-26T22:36:55.918Z,7.32
2022-12-26T22:42:02.104Z,7.26
2022-12-26T22:47:03.895Z,7.26
2022-12-26T22:52:05.253Z,7.18
2022-12-26T22:57:07.927Z,7.12
2022-12-26T23:02:09.366Z,7.12
2022-12-26T23:07:14.797Z,7.15
2022-12-26T23:12:34.941Z,7.18
2022-12-26T23:17:57.112Z,7.23
2022-12-26T23:22:59.061Z,7.19
2022-12-26T23:28:19.094Z,7.12
2022-12-26T23:33:20.418Z,7.11
2022-12-26T23:38:22.170Z,7.03
2022-12-26T23:43:23.593Z,7.02
2022-12-26T23:48:24.923Z,6.83
2022-12-26T23:53:26.251Z,6.74
2022-12-26T23:58:28.629Z,6.73
